createdAt,value
2022-12-25T00:01:44.817Z,2.88
2022-12-25T00:06:50.980Z,2.87
2022-12-25T00:11:56.755Z,2.90
2022-12-25T00:17:02.893Z,2.97
2022-12-25T00:22:08.680Z,3.04
2022-12-25T00:27:14.846Z,3.12
2022-12-25T00:32:20.531Z,3.12
2022-12-25T00:37:26.398Z,3.16
2022-12-25T00:42:32.471Z,3.20
2022-12-25T00:47:38.317Z,3.19
2022-12-25T00:52:46.204Z,3.17
2022-12-25T00:57:52.162Z,3.22
2022-12-25T01:03:00.408Z,3.22
2022-12-25T01:08:07.563Z,3.18
2022-12-25T01:13:13.221Z,3.23
2022-12-25T01:18:19.743Z,3.27
2022-12-25T01:23:25.464Z,3.29
2022-12-25T01:28:31.219Z,3.27
2022-12-25T01:33:36.984Z,3.25
2022-12-25T01:38:43.317Z,3.25
2022-12-25T01:44:02.664Z,3.22
2022-12-25T01:49:12.625Z,3.15
2022-12-25T01:54:22.385Z,3.14
2022-12-25T01:59:29.833Z,3.19
2022-12-25T02:04:40.504Z,3.23
2022-12-25T02:09:47.299Z,3.19
2022-12-25T02:15:01.146Z,3.17
2022-12-25T02:20:47.261Z,3.19
2022-12-25T02:26:08.180Z,3.16
2022-12-25T02:31:17.839Z,3.14
2022-12-25T02:36:26.747Z,3.17
2022-12-25T02:41:39.355Z,3.22
2022-12-25T02:47:04.883Z,3.22
2022-12-25T02:52:32.213Z,3.25
2022-12-25T02:58:01.482Z,3.29
2022-12-25T03:03:30.971Z,3.24
2022-12-25T03:08:40.265Z,3.15
2022-12-25T03:13:49.837Z,3.15
2022-12-25T03:18:58.364Z,3.18
2022-12-25T03:24:23.679Z,3.18
2022-12-25T03:29:52.021Z,3.16
2022-12-25T03:35:22.961Z,3.18
2022-12-25T03:40:57.969Z,3.21
2022-12-25T03:46:28.466Z,3.19
2022-12-25T03:51:57.518Z,3.19
2022-12-25T03:57:22.456Z,3.21
2022-12-25T04:02:47.222Z,3.22
2022-12-25T04:08:11.921Z,3.22
2022-12-25T04:13:36.524Z,3.25
2022-12-25T04:19:00.915Z,3.31
2022-12-25T04:24:26.668Z,3.33
2022-12-25T04:29:51.131Z,3.31
2022-12-25T04:35:15.503Z,3.28
2022-12-25T04:40:21.337Z,3.28
2022-12-25T04:45:27.158Z,3.28
2022-12-25T04:50:32.999Z,3.28
2022-12-25T04:55:38.757Z,3.29
2022-12-25T05:00:45.234Z,3.31
2022-12-25T05:05:51.329Z,3.33
2022-12-25T05:10:57.245Z,3.33
2022-12-25T05:16:06.723Z,3.35
2022-12-25T05:21:12.924Z,3.35
2022-12-25T05:26:21.814Z,3.32
2022-12-25T05:31:27.983Z,3.31
2022-12-25T05:36:33.922Z,3.36
2022-12-25T05:41:40.363Z,3.34
2022-12-25T05:46:46.230Z,3.32
2022-12-25T05:51:52.334Z,3.33
2022-12-25T05:56:58.217Z,3.37
2022-12-25T06:02:04.154Z,3.41
2022-12-25T06:07:10.184Z,3.42
2022-12-25T06:12:16.489Z,3.47
2022-12-25T06:17:24.616Z,3.49
2022-12-25T06:22:31.821Z,3.46
2022-12-25T06:27:37.760Z,3.44
2022-12-25T06:32:43.439Z,3.44
2022-12-25T06:37:49.240Z,3.47
2022-12-25T06:42:54.928Z,3.48
2022-12-25T06:48:01.477Z,3.52
2022-12-25T06:53:07.277Z,3.57
2022-12-25T06:58:13.117Z,3.56
2022-12-25T07:03:22.514Z,3.57
2022-12-25T07:08:28.615Z,3.61
2022-12-25T07:13:35.058Z,3.63
2022-12-25T07:18:41.432Z,3.64
2022-12-25T07:23:48.950Z,3.66
2022-12-25T07:28:56.424Z,3.69
2022-12-25T07:34:02.037Z,3.70
2022-12-25T07:39:09.909Z,3.72
2022-12-25T07:44:15.845Z,3.76
2022-12-25T07:49:21.972Z,3.80
2022-12-25T07:54:27.738Z,3.83
2022-12-25T07:59:33.820Z,3.89
2022-12-25T08:04:39.556Z,3.98
2022-12-25T08:09:45.731Z,4.06
2022-12-25T08:14:51.520Z,4.10
2022-12-25T08:19:57.249Z,4.15
2022-12-25T08:25:03.283Z,4.20
2022-12-25T08:30:10.934Z,4.24
2022-12-25T08:35:16.820Z,4.24
2022-12-25T08:41:07.097Z,4.25
2022-12-25T08:46:20.438Z,4.26
2022-12-25T08:51:26.761Z,4.26
2022-12-25T08:56:32.568Z,4.31
2022-12-25T09:01:38.309Z,4.34
2022-12-25T09:06:44.345Z,4.34
2022-12-25T09:11:50.446Z,4.31
2022-12-25T09:16:56.206Z,4.34
2022-12-25T09:22:01.981Z,4.34
2022-12-25T09:27:08.025Z,4.33
2022-12-25T09:32:13.820Z,4.40
2022-12-25T09:37:19.515Z,4.47
2022-12-25T09:42:28.683Z,4.54
2022-12-25T09:47:38.544Z,4.60
2022-12-25T09:52:50.901Z,4.65
2022-12-25T09:57:59.467Z,4.71
2022-12-25T10:03:18.039Z,4.77
2022-12-25T10:08:47.381Z,4.91
2022-12-25T10:14:11.928Z,4.99
2022-12-25T10:19:34.994Z,5.00
2022-12-25T10:24:45.733Z,5.05
2022-12-25T10:29:54.857Z,5.14
2022-12-25T10:35:01.032Z,5.20
2022-12-25T10:40:28.054Z,5.21
2022-12-25T10:45:44.655Z,5.24
2022-12-25T10:50:51.132Z,5.34
2022-12-25T10:56:00.355Z,5.45
2022-12-25T11:01:08.721Z,5.48
2022-12-25T11:06:25.712Z,5.51
2022-12-25T11:11:41.376Z,5.58
2022-12-25T11:16:47.275Z,5.63
2022-12-25T11:21:54.870Z,5.72
2022-12-25T11:27:06.018Z,5.82
2022-12-25T11:32:16.439Z,5.83
2022-12-25T11:37:28.362Z,5.76
2022-12-25T11:42:39.878Z,5.70
2022-12-25T11:47:46.357Z,5.61
2022-12-25T11:52:54.188Z,5.56
2022-12-25T11:58:04.505Z,5.53
2022-12-25T12:03:19.062Z,5.53
2022-12-25T12:08:25.512Z,5.50
2022-12-25T12:13:44.330Z,5.44
2022-12-25T12:18:50.927Z,5.35
2022-12-25T12:24:02.351Z,5.29
2022-12-25T12:29:25.855Z,5.30
2022-12-25T12:34:40.363Z,5.29
2022-12-25T12:39:51.520Z,5.27
2022-12-25T12:44:57.046Z,5.29
2022-12-25T12:50:05.780Z,5.29
2022-12-25T12:55:13.842Z,5.31
2022-12-25T13:00:21.269Z,5.30
2022-12-25T13:05:36.320Z,5.34
2022-12-25T13:10:48.500Z,5.36
2022-12-25T13:15:55.989Z,5.34
2022-12-25T13:21:05.535Z,5.29
2022-12-25T13:26:17.149Z,5.34
2022-12-25T13:31:25.215Z,5.38
2022-12-25T13:36:36.861Z,5.41
2022-12-25T13:42:04.757Z,5.37
2022-12-25T13:47:20.460Z,5.31
2022-12-25T13:52:33.097Z,5.26
2022-12-25T13:57:41.613Z,5.20
2022-12-25T14:02:47.659Z,5.13
2022-12-25T14:07:55.683Z,5.08
2022-12-25T14:13:05.902Z,5.07
2022-12-25T14:18:17.120Z,5.06
2022-12-25T14:23:23.200Z,5.00
2022-12-25T14:28:34.562Z,5.00
2022-12-25T14:33:41.957Z,5.04
2022-12-25T14:38:58.050Z,5.06
2022-12-25T14:44:07.113Z,5.02
2022-12-25T14:49:25.391Z,5.01
2022-12-25T14:54:31.908Z,5.03
2022-12-25T14:59:37.766Z,5.02
2022-12-25T15:04:44.948Z,4.94
2022-12-25T15:09:55.901Z,4.93
2022-12-25T15:15:16.935Z,4.95
2022-12-25T15:20:25.830Z,4.97
2022-12-25T15:25:31.769Z,4.93
2022-12-25T15:30:39.413Z,4.87
2022-12-25T15:35:45.697Z,4.83
2022-12-25T15:40:51.572Z,4.84
2022-12-25T15:45:57.343Z,4.83
2022-12-25T15:51:03.304Z,4.78
2022-12-25T15:56:11.405Z,4.74
2022-12-25T16:01:18.286Z,4.79
2022-12-25T16:06:24.159Z,4.82
2022-12-25T16:11:30.063Z,4.79
2022-12-25T16:16:36.842Z,4.76
2022-12-25T16:21:45.380Z,4.77
2022-12-25T16:26:51.053Z,4.76
2022-12-25T16:31:56.859Z,4.78
2022-12-25T16:37:02.707Z,4.80
2022-12-25T16:42:08.997Z,4.80
2022-12-25T16:47:14.754Z,4.77
2022-12-25T16:52:20.984Z,4.77
2022-12-25T16:57:28.359Z,4.77
2022-12-25T17:02:34.431Z,4.76
2022-12-25T17:07:41.044Z,4.75
2022-12-25T17:12:46.832Z,4.74
2022-12-25T17:17:52.683Z,4.78
2022-12-25T17:22:58.512Z,4.78
2022-12-25T17:28:04.590Z,4.76
2022-12-25T17:33:10.458Z,4.79
2022-12-25T17:38:16.195Z,4.79
2022-12-25T17:43:22.432Z,4.74
2022-12-25T17:48:28.671Z,4.71
2022-12-25T17:53:35.799Z,4.75
2022-12-25T17:58:41.763Z,4.77
2022-12-25T18:03:48.477Z,4.74
2022-12-25T18:08:56.176Z,4.70
2022-12-25T18:14:05.338Z,4.71
2022-12-25T18:19:11.349Z,4.76
2022-12-25T18:24:17.271Z,4.75
2022-12-25T18:29:23.387Z,4.72
2022-12-25T18:34:29.168Z,4.74
2022-12-25T18:39:35.114Z,4.78
2022-12-25T18:44:40.881Z,4.79
2022-12-25T18:49:47.463Z,4.78
2022-12-25T18:54:53.470Z,4.81
2022-12-25T18:59:59.809Z,4.80
2022-12-25T19:05:06.490Z,4.77
2022-12-25T19:10:12.340Z,4.81
2022-12-25T19:15:18.252Z,4.83
2022-12-25T19:20:24.225Z,4.82
2022-12-25T19:25:30.136Z,4.79
2022-12-25T19:30:37.395Z,4.76
2022-12-25T19:35:43.314Z,4.73
2022-12-25T19:41:01.463Z,4.73
2022-12-25T19:46:10.252Z,4.73
2022-12-25T19:51:21.014Z,4.71
2022-12-25T19:56:28.425Z,4.70
2022-12-25T20:01:34.446Z,4.71
2022-12-25T20:06:42.727Z,4.71
2022-12-25T20:11:49.183Z,4.71
2022-12-25T20:16:54.976Z,4.71
2022-12-25T20:22:01.006Z,4.69
2022-12-25T20:27:06.867Z,4.68
2022-12-25T20:32:13.971Z,4.66
2022-12-25T20:37:19.847Z,4.63
2022-12-25T20:42:25.735Z,4.58
2022-12-25T20:47:31.591Z,4.55
2022-12-25T20:52:37.324Z,4.51
2022-12-25T20:57:43.881Z,4.46
2022-12-25T21:02:49.814Z,4.41
2022-12-25T21:07:57.237Z,4.39
2022-12-25T21:13:02.952Z,4.40
2022-12-25T21:18:08.900Z,4.41
2022-12-25T21:23:14.713Z,4.35
2022-12-25T21:28:20.934Z,4.30
2022-12-25T21:33:46.291Z,4.30
2022-12-25T21:38:57.389Z,4.29
2022-12-25T21:44:03.750Z,4.25
2022-12-25T21:49:11.057Z,4.22
2022-12-25T21:54:19.973Z,4.23
2022-12-25T21:59:25.976Z,4.26
2022-12-25T22:04:31.919Z,4.24
2022-12-25T22:09:38.650Z,4.25
2022-12-25T22:14:54.283Z,4.28
2022-12-25T22:20:01.204Z,4.27
2022-12-25T22:25:09.082Z,4.21
2022-12-25T22:30:17.315Z,4.20
2022-12-25T22:35:24.016Z,4.22
2022-12-25T22:40:29.874Z,4.25
2022-12-25T22:45:35.558Z,4.22
2022-12-25T22:50:41.819Z,4.22
2022-12-25T22:55:48.796Z,4.26
2022-12-25T23:00:54.743Z,4.27
2022-12-25T23:06:00.805Z,4.25
2022-12-25T23:11:07.098Z,4.29
2022-12-25T23:16:16.928Z,4.31
2022-12-25T23:21:41.736Z,4.29
2022-12-25T23:26:47.963Z,4.28
2022-12-25T23:31:54.443Z,4.29
2022-12-25T23:37:00.132Z,4.26
2022-12-25T23:42:06.524Z,4.23
2022-12-25T23:47:12.265Z,4.20
2022-12-25T23:52:18.172Z,4.17
2022-12-25T23:57:24.133Z,4.12
